Time;durP1;ratioP1;P1;durP2;ratioP2;P2;SDS_P1;SDS_P2;PMS_P1;PMS_P2;Temp;Humidity;BMP_temperature;BMP_pressure;BME280_temperature;BME280_humidity;BME280_pressure;Samples;Min_cycle;Max_cycle;Signal;HPM_P1;HPM_P2
2023/01/23 00:01:09;;;;;;;43.38;12.18;;;2.30;99.90;;;;;;5055670;28;20256;-76
2023/01/23 00:03:35;;;;;;;52.30;13.60;;;2.30;99.90;;;;;;5056594;28;20056;-76
2023/01/23 00:06:06;;;;;;;49.65;13.15;;;2.20;99.90;;;;;;5057218;28;20443;-75
2023/01/23 00:08:33;;;;;;;50.75;13.65;;;2.20;99.90;;;;;;5055172;28;20041;-75
2023/01/23 00:10:59;;;;;;;54.33;14.35;;;2.20;99.90;;;;;;5056564;28;20052;-75
2023/01/23 00:13:25;;;;;;;51.30;13.75;;;2.20;99.90;;;;;;5056392;28;20473;-76
2023/01/23 00:15:51;;;;;;;50.08;13.95;;;2.30;99.90;;;;;;5055238;28;20451;-75
2023/01/23 00:18:17;;;;;;;51.50;14.40;;;2.30;99.90;;;;;;5054875;28;20072;-76
2023/01/23 00:20:42;;;;;;;43.20;13.07;;;2.20;99.90;;;;;;5056019;28;20041;-75
2023/01/23 00:23:09;;;;;;;47.88;12.18;;;2.30;99.90;;;;;;5055983;28;20049;-75
2023/01/23 00:25:35;;;;;;;43.20;12.75;;;2.30;99.90;;;;;;5056430;28;20045;-76
2023/01/23 00:28:02;;;;;;;51.05;13.32;;;2.30;99.90;;;;;;5055923;28;20405;-76
2023/01/23 00:30:28;;;;;;;48.03;13.35;;;2.30;99.90;;;;;;5055649;28;20544;-76
2023/01/23 00:32:54;;;;;;;59.70;14.57;;;2.30;99.90;;;;;;5054964;28;20076;-75
2023/01/23 00:35:20;;;;;;;45.45;13.43;;;2.30;99.90;;;;;;5056002;28;20048;-76
2023/01/23 00:37:46;;;;;;;54.97;14.23;;;2.30;99.90;;;;;;5055651;28;20049;-75
2023/01/23 00:40:12;;;;;;;46.42;13.80;;;2.30;99.90;;;;;;5056738;28;20432;-75
2023/01/23 00:42:38;;;;;;;52.72;14.10;;;2.30;99.90;;;;;;5088610;28;20049;-75
2023/01/23 00:45:04;;;;;;;55.30;14.55;;;2.30;99.90;;;;;;5056658;28;20429;-75
2023/01/23 00:47:30;;;;;;;50.73;12.93;;;2.30;99.90;;;;;;5055154;28;20052;-76
2023/01/23 00:49:57;;;;;;;48.53;13.10;;;2.30;99.90;;;;;;5056216;28;20053;-76
2023/01/23 00:52:26;;;;;;;;;;;2.30;99.90;;;;;;5056755;28;20049;-75
2023/01/23 00:54:52;;;;;;;52.75;14.30;;;2.30;99.90;;;;;;5057690;28;20252;-74
2023/01/23 00:57:18;;;;;;;49.22;12.63;;;2.30;99.90;;;;;;5055594;28;20045;-74
2023/01/23 00:59:44;;;;;;;55.35;14.38;;;2.40;99.90;;;;;;5055322;28;20052;-76
2023/01/23 01:02:09;;;;;;;57.00;15.57;;;2.30;99.90;;;;;;5055268;28;20045;-74
2023/01/23 01:04:35;;;;;;;51.50;14.27;;;2.30;99.90;;;;;;5055227;28;20126;-75
2023/01/23 01:07:01;;;;;;;55.83;13.38;;;2.30;99.90;;;;;;5055358;28;20124;-75
2023/01/23 01:09:26;;;;;;;55.20;16.25;;;2.30;99.90;;;;;;5053807;28;20548;-75
2023/01/23 01:11:52;;;;;;;55.97;14.20;;;2.30;99.90;;;;;;5055597;28;20044;-75
2023/01/23 01:14:18;;;;;;;48.95;13.52;;;2.30;99.90;;;;;;5055124;28;20040;-75
2023/01/23 01:16:45;;;;;;;50.05;14.20;;;2.30;99.90;;;;;;5053886;28;20045;-74
2023/01/23 01:19:16;;;;;;;47.33;13.75;;;2.30;99.90;;;;;;5087734;28;20132;-76
2023/01/23 01:21:42;;;;;;;60.97;14.40;;;2.30;99.90;;;;;;5056156;28;20389;-76
2023/01/23 01:24:08;;;;;;;49.80;13.88;;;2.30;99.90;;;;;;5054055;28;20123;-76
2023/01/23 01:26:35;;;;;;;50.08;14.13;;;2.30;99.90;;;;;;5055234;28;20040;-74
2023/01/23 01:29:01;;;;;;;66.20;15.85;;;2.40;99.90;;;;;;5055492;28;20063;-75
2023/01/23 01:31:27;;;;;;;54.20;14.40;;;2.30;99.90;;;;;;5087158;28;20547;-75
2023/01/23 01:33:52;;;;;;;48.83;14.25;;;2.40;99.90;;;;;;5054899;28;20284;-75
2023/01/23 01:36:20;;;;;;;59.28;15.05;;;2.40;99.90;;;;;;5053629;28;20110;-74
2023/01/23 01:38:46;;;;;;;48.55;13.40;;;2.40;99.90;;;;;;5054388;28;20041;-75
2023/01/23 01:41:14;;;;;;;51.97;13.40;;;2.40;99.90;;;;;;5053516;28;20051;-75
2023/01/23 01:43:41;;;;;;;46.13;13.80;;;2.40;99.90;;;;;;5036891;28;20519;-75
2023/01/23 01:46:22;;;;;;;51.63;14.15;;;2.40;99.90;;;;;;5054594;28;20075;-74
2023/01/23 01:49:03;;;;;;;51.42;14.52;;;2.50;99.90;;;;;;5053793;28;20110;-74
2023/01/23 01:51:37;;;;;;;49.67;14.13;;;2.50;99.90;;;;;;5054972;28;20060;-76
2023/01/23 01:54:13;;;;;;;52.35;13.85;;;2.50;99.90;;;;;;5053420;28;20053;-71
2023/01/23 01:56:53;;;;;;;50.60;14.33;;;2.40;99.90;;;;;;5054539;28;20041;-73
2023/01/23 01:59:21;;;;;;;54.83;13.60;;;2.50;99.90;;;;;;5054564;28;20103;-74
2023/01/23 02:01:50;;;;;;;56.83;13.60;;;2.40;99.90;;;;;;5053444;28;20045;-72
2023/01/23 02:04:16;;;;;;;54.15;16.05;;;2.50;99.90;;;;;;5052947;28;20048;-72
2023/01/23 02:06:43;;;;;;;49.50;14.30;;;2.40;99.90;;;;;;5086918;28;20052;-73
2023/01/23 02:09:35;;;;;;;65.10;14.40;;;2.50;99.90;;;;;;5053355;28;20283;-72
2023/01/23 02:12:01;;;;;;;50.67;13.95;;;2.50;99.90;;;;;;5050478;28;20060;-73
2023/01/23 02:14:27;;;;;;;45.30;13.68;;;2.50;99.90;;;;;;5053137;28;20051;-73
2023/01/23 02:16:59;;;;;;;46.00;13.45;;;2.50;99.90;;;;;;5052876;28;20044;-73
2023/01/23 02:19:53;;;;;;;50.38;13.95;;;2.50;99.90;;;;;;5070021;28;20084;-73
2023/01/23 02:22:34;;;;;;;53.28;13.65;;;2.50;99.90;;;;;;5054173;28;20099;-73
2023/01/23 02:25:37;;;;;;;61.05;16.30;;;2.50;99.90;;;;;;5053567;28;20393;-73
2023/01/23 02:28:03;;;;;;;45.35;13.25;;;2.50;99.90;;;;;;5028405;28;20071;-73
2023/01/23 02:30:29;;;;;;;59.07;15.23;;;2.50;99.90;;;;;;5036380;28;20057;-73
2023/01/23 02:33:11;;;;;;;47.53;12.68;;;2.40;99.90;;;;;;5054421;28;20053;-72
2023/01/23 02:35:37;;;;;;;48.67;13.52;;;2.50;99.90;;;;;;5054247;28;20044;-73
2023/01/23 02:38:05;;;;;;;56.55;13.95;;;2.50;99.90;;;;;;5053874;28;20051;-73
2023/01/23 02:40:35;;;;;;;;;;;2.50;99.90;;;;;;5053242;28;20370;-72
2023/01/23 02:43:07;;;;;;;62.55;16.08;;;2.50;99.90;;;;;;5053834;28;19920;-72
2023/01/23 02:45:33;;;;;;;60.35;15.98;;;2.50;99.90;;;;;;5054552;28;20041;-72
2023/01/23 02:48:00;;;;;;;49.45;14.15;;;2.50;99.90;;;;;;5035995;28;20045;-72
2023/01/23 02:50:27;;;;;;;54.88;14.23;;;2.50;99.90;;;;;;5037180;28;20124;-72
2023/01/23 02:52:53;;;;;;;54.78;15.65;;;2.50;99.90;;;;;;5035680;28;20063;-72
2023/01/23 02:55:22;;;;;;;57.13;14.18;;;2.50;99.90;;;;;;5052462;28;20056;-72
2023/01/23 02:57:48;;;;;;;54.83;13.75;;;2.50;99.90;;;;;;5053424;28;20052;-72
2023/01/23 03:00:18;;;;;;;53.47;14.32;;;2.60;99.90;;;;;;5053379;28;20041;-72
2023/01/23 03:02:50;;;;;;;56.75;13.88;;;2.60;99.90;;;;;;5020376;28;20056;-72
2023/01/23 03:05:17;;;;;;;49.72;13.82;;;2.60;99.90;;;;;;5085640;28;20040;-72
2023/01/23 03:07:43;;;;;;;63.43;15.10;;;2.60;99.90;;;;;;5052200;28;20159;-73
2023/01/23 03:10:10;;;;;;;50.95;14.63;;;2.60;99.90;;;;;;5053905;28;20378;-73
2023/01/23 03:12:42;;;;;;;49.92;14.13;;;2.60;99.90;;;;;;5035520;28;20044;-72
2023/01/23 03:15:09;;;;;;;61.22;15.82;;;2.60;99.90;;;;;;5052935;28;20489;-72
2023/01/23 03:17:35;;;;;;;54.75;14.32;;;2.60;99.90;;;;;;5052838;28;20045;-72
2023/01/23 03:20:03;;;;;;;61.35;15.40;;;2.60;99.90;;;;;;5053115;28;20094;-72
2023/01/23 03:22:28;;;;;;;60.00;16.17;;;2.60;99.90;;;;;;5053172;28;20051;-72
2023/01/23 03:24:56;;;;;;;55.25;14.02;;;2.60;99.90;;;;;;5051560;28;20041;-73
2023/01/23 03:27:23;;;;;;;61.45;17.17;;;2.60;99.90;;;;;;5085668;28;20490;-72
2023/01/23 03:32:33;;;;;;;51.45;13.32;;;2.60;99.90;;;;;;5087803;28;20084;-73
2023/01/23 03:34:59;;;;;;;52.70;14.85;;;2.50;99.90;;;;;;5057188;28;20144;-72
2023/01/23 03:37:24;;;;;;;53.95;15.52;;;2.60;99.90;;;;;;5057204;28;20052;-72
2023/01/23 03:42:35;;;;;;;51.42;13.98;;;2.60;99.90;;;;;;5057194;28;20124;-73
2023/01/23 03:45:01;;;;;;;66.32;15.40;;;2.60;99.90;;;;;;5055595;28;20088;-72
2023/01/23 03:47:26;;;;;;;65.50;16.02;;;2.60;99.90;;;;;;5056935;28;20088;-72
2023/01/23 03:49:52;;;;;;;57.60;15.07;;;2.70;99.90;;;;;;5072646;28;20091;-73
2023/01/23 03:52:18;;;;;;;56.42;14.68;;;2.60;99.90;;;;;;5073408;28;20049;-72
2023/01/23 03:54:44;;;;;;;64.63;15.98;;;2.60;99.90;;;;;;5055841;28;20049;-73
2023/01/23 03:57:10;;;;;;;60.10;14.98;;;2.60;99.90;;;;;;5055496;28;20060;-73
2023/01/23 03:59:35;;;;;;;62.00;15.38;;;2.60;99.90;;;;;;5039119;28;20128;-73
2023/01/23 04:02:03;;;;;;;58.97;15.35;;;2.60;99.90;;;;;;5056489;28;20128;-72
2023/01/23 04:04:33;;;;;;;48.92;13.93;;;2.70;99.90;;;;;;5056618;28;20041;-73
2023/01/23 04:06:59;;;;;;;56.58;15.60;;;2.70;99.90;;;;;;5056901;28;20085;-72
2023/01/23 04:09:26;;;;;;;57.95;14.98;;;2.60;99.90;;;;;;5072039;28;20481;-72
2023/01/23 04:11:55;;;;;;;;;;;2.60;99.90;;;;;;5056892;28;20095;-71
2023/01/23 04:14:26;;;;;;;59.78;15.80;;;2.60;99.90;;;;;;5055491;28;20062;-72
2023/01/23 04:16:55;;;;;;;59.80;14.45;;;2.60;99.90;;;;;;5055212;28;20147;-73
2023/01/23 04:19:20;;;;;;;60.97;15.30;;;2.60;99.90;;;;;;5056331;28;20045;-72
2023/01/23 04:21:47;;;;;;;61.25;16.05;;;2.60;99.90;;;;;;5055190;28;20060;-74
2023/01/23 04:24:17;;;;;;;52.53;14.23;;;2.50;99.90;;;;;;5055120;28;20045;-72
2023/01/23 04:26:43;;;;;;;53.97;15.07;;;2.50;99.90;;;;;;5039514;28;20099;-73
2023/01/23 04:29:09;;;;;;;65.47;18.87;;;2.60;99.90;;;;;;5055932;28;20087;-73
2023/01/23 04:31:35;;;;;;;53.20;14.68;;;2.50;99.90;;;;;;5089250;28;20052;-73
2023/01/23 04:34:00;;;;;;;59.88;14.60;;;2.60;99.90;;;;;;5055126;28;20476;-73
2023/01/23 04:36:26;;;;;;;68.15;15.88;;;2.60;99.90;;;;;;5054518;28;20045;-73
2023/01/23 04:38:52;;;;;;;57.38;16.23;;;2.50;99.90;;;;;;5056248;28;20095;-73
2023/01/23 04:41:23;;;;;;;55.15;13.88;;;2.60;99.90;;;;;;5055160;28;20417;-72
2023/01/23 04:43:49;;;;;;;57.22;15.15;;;2.50;99.90;;;;;;5054145;28;20055;-72
2023/01/23 04:46:15;;;;;;;63.83;15.43;;;2.60;99.90;;;;;;5038108;28;20080;-72
2023/01/23 04:48:41;;;;;;;62.80;16.60;;;2.60;99.90;;;;;;5054939;28;20041;-72
2023/01/23 04:51:06;;;;;;;59.35;15.13;;;2.60;99.90;;;;;;5087871;28;20049;-72
2023/01/23 04:53:32;;;;;;;56.97;14.50;;;2.60;99.90;;;;;;5071662;28;20053;-73
2023/01/23 04:55:58;;;;;;;53.80;14.93;;;2.60;99.90;;;;;;5054441;28;20080;-73
2023/01/23 04:58:24;;;;;;;51.80;13.43;;;2.60;99.90;;;;;;5021682;28;20051;-72
2023/01/23 05:00:50;;;;;;;56.65;16.08;;;2.50;99.90;;;;;;5054684;28;20056;-73
2023/01/23 05:03:16;;;;;;;61.15;15.05;;;2.60;99.90;;;;;;5088625;28;20091;-72
2023/01/23 05:05:43;;;;;;;63.53;15.90;;;2.50;99.90;;;;;;5056117;28;20444;-72
2023/01/23 05:08:12;;;;;;;63.20;14.32;;;2.50;99.90;;;;;;5054477;28;20053;-73
2023/01/23 05:10:39;;;;;;;68.25;16.60;;;2.50;99.90;;;;;;5054371;28;20041;-72
2023/01/23 05:13:05;;;;;;;52.05;14.05;;;2.50;99.90;;;;;;5055518;28;20061;-72
2023/01/23 05:15:31;;;;;;;64.97;17.20;;;2.50;99.90;;;;;;5088234;28;20049;-73
2023/01/23 05:17:57;;;;;;;62.15;17.33;;;2.50;99.90;;;;;;5054362;28;20103;-73
2023/01/23 05:20:22;;;;;;;63.03;14.85;;;2.40;99.90;;;;;;5037767;28;20052;-72
2023/01/23 05:22:52;;;;;;;57.17;15.80;;;2.50;99.90;;;;;;5071054;28;20095;-72
2023/01/23 05:25:23;;;;;;;65.32;16.52;;;2.50;99.90;;;;;;5038362;28;20045;-73
2023/01/23 05:27:50;;;;;;;62.30;15.80;;;2.50;99.90;;;;;;5054787;28;20557;-73
2023/01/23 05:30:16;;;;;;;60.67;17.00;;;2.50;99.90;;;;;;5053796;28;20064;-74
2023/01/23 05:32:42;;;;;;;67.88;16.85;;;2.50;99.90;;;;;;5053899;28;20092;-73
2023/01/23 05:35:09;;;;;;;63.67;15.07;;;2.50;99.90;;;;;;5054789;28;20045;-72
2023/01/23 05:37:35;;;;;;;62.40;15.93;;;2.50;99.90;;;;;;5054705;28;20087;-73
2023/01/23 05:40:01;;;;;;;63.45;17.13;;;2.60;99.90;;;;;;5037057;28;20049;-73
2023/01/23 05:42:26;;;;;;;66.97;15.85;;;2.60;99.90;;;;;;5053804;28;20102;-72
2023/01/23 05:44:52;;;;;;;69.28;18.13;;;2.60;99.90;;;;;;5020610;28;20048;-72
2023/01/23 05:47:18;;;;;;;61.63;16.25;;;2.60;99.90;;;;;;5053574;28;20049;-71
2023/01/23 05:49:44;;;;;;;74.38;17.38;;;2.60;99.90;;;;;;5054180;28;20043;-72
2023/01/23 05:52:11;;;;;;;67.23;16.33;;;2.60;99.90;;;;;;5087995;28;20132;-73
2023/01/23 05:54:36;;;;;;;74.78;16.63;;;2.60;99.90;;;;;;5052613;28;20053;-73
2023/01/23 05:57:02;;;;;;;66.72;18.08;;;2.60;99.90;;;;;;5037553;28;20128;-72
2023/01/23 05:59:29;;;;;;;62.72;16.52;;;2.60;99.90;;;;;;5087558;28;20123;-72
2023/01/23 06:01:54;;;;;;;58.85;15.80;;;2.50;99.90;;;;;;5053789;28;20512;-73
2023/01/23 06:04:20;;;;;;;68.28;16.52;;;2.60;99.90;;;;;;5053215;28;20080;-72
2023/01/23 06:06:46;;;;;;;62.45;15.80;;;2.50;99.90;;;;;;5054244;28;20074;-72
2023/01/23 06:09:12;;;;;;;62.38;16.10;;;2.60;99.90;;;;;;5053289;28;20056;-72
2023/01/23 06:11:38;;;;;;;61.65;16.40;;;2.50;99.90;;;;;;5054488;28;20041;-73
2023/01/23 06:14:04;;;;;;;66.25;15.90;;;2.50;99.90;;;;;;5054592;28;20045;-72
2023/01/23 06:16:29;;;;;;;84.18;18.25;;;2.50;99.90;;;;;;5053946;28;20053;-73
2023/01/23 06:18:55;;;;;;;72.78;17.83;;;2.60;99.90;;;;;;5054080;28;20128;-72
2023/01/23 06:21:21;;;;;;;74.10;19.42;;;2.50;99.90;;;;;;5086683;28;20090;-72
2023/01/23 06:23:46;;;;;;;74.57;17.48;;;2.60;99.90;;;;;;5054604;28;20084;-72
2023/01/23 06:26:13;;;;;;;74.63;18.10;;;2.50;99.90;;;;;;5052805;28;20037;-71
2023/01/23 06:28:39;;;;;;;71.40;17.20;;;2.60;99.90;;;;;;5085709;28;20053;-73
2023/01/23 06:31:07;;;;;;;68.47;17.85;;;2.60;99.90;;;;;;5052465;28;20488;-73
2023/01/23 06:33:33;;;;;;;65.18;17.48;;;2.50;99.90;;;;;;5053402;28;20052;-73
2023/01/23 06:36:01;;;;;;;79.30;17.98;;;2.50;99.90;;;;;;5053810;28;20053;-72
2023/01/23 06:38:28;;;;;;;64.90;17.02;;;2.60;99.90;;;;;;5036840;28;20045;-72
2023/01/23 06:40:54;;;;;;;61.83;15.80;;;2.60;99.90;;;;;;5054456;28;20064;-72
2023/01/23 06:43:21;;;;;;;62.70;15.75;;;2.50;99.90;;;;;;5052254;28;20501;-73
2023/01/23 06:45:47;;;;;;;60.65;16.23;;;2.50;99.90;;;;;;5086836;28;20045;-73
2023/01/23 06:48:13;;;;;;;62.40;16.55;;;2.60;99.90;;;;;;5053481;28;20457;-72
2023/01/23 06:50:39;;;;;;;63.33;16.40;;;2.60;99.90;;;;;;5053868;28;20107;-72
2023/01/23 06:53:05;;;;;;;62.72;16.13;;;2.60;99.90;;;;;;5036331;28;20067;-72
2023/01/23 06:55:32;;;;;;;58.78;15.50;;;2.60;99.90;;;;;;5054154;28;20040;-72
2023/01/23 06:57:57;;;;;;;58.13;15.65;;;2.60;99.90;;;;;;5086169;28;20053;-71
2023/01/23 07:00:23;;;;;;;59.38;17.45;;;2.70;99.90;;;;;;5035726;28;20053;-73
2023/01/23 07:02:51;;;;;;;64.60;18.27;;;2.60;99.90;;;;;;5054071;28;20044;-72
2023/01/23 07:05:16;;;;;;;67.65;16.02;;;2.50;99.90;;;;;;5053148;28;20153;-72
2023/01/23 07:07:42;;;;;;;57.83;15.32;;;2.50;99.90;;;;;;5053107;28;20080;-72
2023/01/23 07:10:08;;;;;;;56.40;15.88;;;2.60;99.90;;;;;;5069483;28;20075;-73
2023/01/23 07:12:34;;;;;;;69.25;16.30;;;2.50;99.90;;;;;;5019651;28;20106;-72
2023/01/23 07:15:00;;;;;;;57.90;15.32;;;2.50;99.90;;;;;;5036366;28;20124;-73
2023/01/23 07:17:26;;;;;;;58.72;15.93;;;2.50;99.90;;;;;;5052257;28;20359;-73
2023/01/23 07:19:52;;;;;;;66.25;17.38;;;2.50;99.90;;;;;;5052207;28;20539;-72
2023/01/23 07:22:19;;;;;;;60.78;16.05;;;2.50;99.90;;;;;;5036084;28;20049;-73
2023/01/23 07:24:46;;;;;;;69.60;17.35;;;2.50;99.90;;;;;;5053131;28;20045;-71
2023/01/23 07:27:13;;;;;;;62.40;16.65;;;2.50;99.90;;;;;;5053061;28;20493;-73
2023/01/23 07:29:39;;;;;;;59.30;16.90;;;2.50;99.90;;;;;;5052012;28;20057;-72
2023/01/23 07:32:04;;;;;;;65.88;16.88;;;2.60;99.90;;;;;;5035780;28;20298;-72
2023/01/23 07:34:31;;;;;;;63.38;16.63;;;2.60;99.90;;;;;;5053077;28;20048;-72
2023/01/23 07:36:57;;;;;;;56.77;16.80;;;2.60;99.90;;;;;;5035880;28;20060;-72
2023/01/23 07:39:23;;;;;;;67.40;17.88;;;2.60;99.90;;;;;;5035377;28;20636;-71
2023/01/23 07:41:49;;;;;;;68.30;17.42;;;2.60;99.90;;;;;;5053340;28;20042;-72
2023/01/23 07:44:20;;;;;;;67.50;17.27;;;2.60;99.90;;;;;;5051976;28;20124;-72
2023/01/23 07:46:47;;;;;;;69.13;17.55;;;2.70;99.90;;;;;;5085480;28;20084;-71
2023/01/23 07:49:13;;;;;;;70.28;16.67;;;2.60;99.90;;;;;;5054129;28;20056;-72
2023/01/23 07:51:40;;;;;;;63.57;17.37;;;2.70;99.90;;;;;;5035598;28;20106;-71
2023/01/23 07:54:06;;;;;;;64.68;17.20;;;2.70;99.90;;;;;;5068967;28;20299;-72
2023/01/23 07:56:32;;;;;;;58.47;16.17;;;2.70;99.90;;;;;;5052954;28;20096;-73
2023/01/23 07:58:59;;;;;;;62.88;16.42;;;2.70;99.90;;;;;;5051840;28;20120;-71
2023/01/23 08:01:25;;;;;;;57.63;15.93;;;2.70;99.90;;;;;;5068338;28;20137;-72
2023/01/23 08:03:52;;;;;;;59.20;15.98;;;2.70;99.90;;;;;;5053595;28;20128;-73
2023/01/23 08:06:18;;;;;;;63.80;16.80;;;2.70;99.90;;;;;;5051990;28;20119;-73
2023/01/23 08:08:46;;;;;;;62.33;14.98;;;2.70;99.90;;;;;;5053155;28;20045;-72
2023/01/23 08:11:12;;;;;;;65.30;16.95;;;2.70;99.90;;;;;;5019492;28;20053;-72
2023/01/23 08:13:38;;;;;;;72.22;16.10;;;2.80;99.90;;;;;;5085311;28;20063;-72
2023/01/23 08:16:04;;;;;;;58.33;16.30;;;2.80;99.90;;;;;;5053350;28;20044;-72
2023/01/23 08:18:30;;;;;;;131.98;34.28;;;2.80;99.90;;;;;;5036843;28;20053;-71
2023/01/23 08:20:58;;;;;;;74.82;20.13;;;2.80;99.90;;;;;;5089046;28;20052;-72
2023/01/23 08:23:29;;;;;;;66.43;17.30;;;2.80;99.90;;;;;;5056664;28;20045;-72
2023/01/23 08:25:57;;;;;;;64.50;17.98;;;2.80;99.90;;;;;;5055413;28;20041;-72
2023/01/23 08:28:24;;;;;;;57.33;16.17;;;2.80;99.90;;;;;;5088710;28;20518;-72
2023/01/23 08:30:50;;;;;;;69.68;17.92;;;2.80;99.90;;;;;;5056551;28;20139;-72
2023/01/23 08:33:17;;;;;;;62.90;17.40;;;2.90;99.90;;;;;;5056516;28;20045;-73
2023/01/23 08:35:55;;;;;;;63.45;16.98;;;2.90;99.90;;;;;;5056272;28;20353;-72
2023/01/23 08:38:22;;;;;;;63.85;16.85;;;2.90;99.90;;;;;;5055156;28;20071;-72
2023/01/23 08:40:50;;;;;;;59.08;16.02;;;2.90;99.90;;;;;;5072145;28;20064;-73
2023/01/23 08:43:17;;;;;;;58.03;16.40;;;2.90;99.90;;;;;;5056336;28;20041;-72
2023/01/23 08:46:09;;;;;;;53.40;14.32;;;2.90;99.90;;;;;;5038800;28;20045;-73
2023/01/23 08:48:35;;;;;;;63.55;16.90;;;3.00;99.90;;;;;;5068545;28;20052;-72
2023/01/23 08:51:06;;;;;;;56.22;16.95;;;3.00;99.90;;;;;;5056111;28;20048;-72
2023/01/23 08:53:33;;;;;;;62.25;16.85;;;3.00;99.90;;;;;;5055142;28;20061;-71
2023/01/23 08:56:04;;;;;;;56.75;16.73;;;3.10;99.90;;;;;;5056113;28;20044;-72
2023/01/23 08:58:30;;;;;;;60.55;17.08;;;3.10;99.90;;;;;;5038526;28;20048;-71
2023/01/23 09:00:56;;;;;;;56.45;16.40;;;3.10;99.90;;;;;;5088854;28;20052;-72
2023/01/23 09:03:22;;;;;;;53.17;14.52;;;3.20;99.90;;;;;;5055255;28;20053;-73
2023/01/23 09:05:48;;;;;;;58.47;16.23;;;3.20;99.90;;;;;;5054306;28;20559;-73
2023/01/23 09:08:14;;;;;;;64.10;15.88;;;3.20;99.90;;;;;;5039286;28;20052;-72
2023/01/23 09:10:40;;;;;;;58.90;17.23;;;3.30;99.90;;;;;;5056036;28;20106;-71
2023/01/23 09:13:05;;;;;;;59.85;17.10;;;3.30;99.90;;;;;;5039067;28;20049;-72
2023/01/23 09:15:31;;;;;;;53.90;15.60;;;3.30;99.90;;;;;;5055835;28;20098;-73
2023/01/23 09:17:57;;;;;;;68.68;18.58;;;3.40;99.90;;;;;;5054711;28;20132;-72
2023/01/23 09:20:27;;;;;;;55.65;16.02;;;3.40;99.90;;;;;;5055812;28;20056;-73
2023/01/23 09:22:53;;;;;;;59.75;16.48;;;3.40;99.90;;;;;;5055970;28;20052;-72
2023/01/23 09:25:19;;;;;;;51.97;16.27;;;3.40;99.90;;;;;;5055187;28;20049;-71
2023/01/23 09:27:45;;;;;;;54.05;16.33;;;3.50;99.90;;;;;;5054892;28;20044;-71
2023/01/23 09:30:11;;;;;;;57.90;17.90;;;3.60;99.90;;;;;;5057306;28;20495;-72
2023/01/23 09:32:37;;;;;;;58.92;16.38;;;3.50;99.90;;;;;;5054879;28;20041;-73
2023/01/23 09:35:03;;;;;;;58.55;17.65;;;3.60;99.90;;;;;;5054644;28;20393;-73
2023/01/23 09:37:58;;;;;;;61.73;16.97;;;3.60;99.90;;;;;;5038785;28;20359;-73
2023/01/23 09:40:21;;;;;;;53.55;15.48;;;3.50;99.90;;;;;;5054082;28;20334;-71
2023/01/23 09:42:48;;;;;;;58.20;15.63;;;3.50;99.90;;;;;;5055291;28;20048;-72
2023/01/23 09:45:26;;;;;;;63.70;15.68;;;3.60;99.90;;;;;;5054575;28;20052;-71
2023/01/23 09:48:19;;;;;;;54.63;15.07;;;3.60;99.90;;;;;;5054556;28;20060;-72
2023/01/23 09:51:16;;;;;;;55.45;15.27;;;3.60;99.90;;;;;;5054008;28;20140;-73
2023/01/23 09:53:42;;;;;;;54.45;15.45;;;3.60;99.90;;;;;;5026666;28;20103;-72
2023/01/23 09:56:21;;;;;;;58.58;15.90;;;3.60;99.90;;;;;;5054953;28;20041;-72
2023/01/23 09:58:58;;;;;;;61.03;16.73;;;3.60;99.90;;;;;;5054878;28;20053;-72
2023/01/23 10:01:27;;;;;;;52.20;15.25;;;3.60;99.90;;;;;;5054606;28;20044;-72
2023/01/23 10:03:53;;;;;;;53.58;16.02;;;3.60;99.90;;;;;;5052927;28;20489;-72
2023/01/23 10:06:23;;;;;;;49.53;15.00;;;3.70;99.90;;;;;;5037105;28;20051;-71
2023/01/23 10:08:58;;;;;;;49.78;14.55;;;3.60;99.90;;;;;;5053639;28;20212;-71
2023/01/23 10:11:33;;;;;;;53.67;15.45;;;3.60;99.90;;;;;;5054773;28;20047;-71
2023/01/23 10:14:09;;;;;;;54.47;15.55;;;3.60;99.90;;;;;;5054547;28;20456;-72
2023/01/23 10:16:59;;;;;;;50.47;14.35;;;3.60;99.90;;;;;;5087455;28;20041;-73
2023/01/23 10:19:52;;;;;;;60.45;21.33;;;3.60;99.90;;;;;;5054876;28;20043;-71
2023/01/23 10:22:50;;;;;;;46.88;13.90;;;3.40;99.90;;;;;;5053799;28;20052;-72
2023/01/23 10:25:26;;;;;;;52.72;14.25;;;3.60;99.90;;;;;;5070878;28;20110;-72
2023/01/23 10:27:59;;;;;;;45.33;13.90;;;3.60;99.90;;;;;;5054073;28;20041;-72
2023/01/23 10:30:32;;;;;;;55.58;16.75;;;3.60;99.90;;;;;;5054617;28;20056;-72
2023/01/23 10:33:07;;;;;;;47.55;13.93;;;3.50;99.90;;;;;;5036229;28;20132;-72
2023/01/23 10:35:42;;;;;;;47.30;14.77;;;3.60;99.90;;;;;;5054120;28;20077;-73
2023/01/23 10:38:29;;;;;;;50.15;14.05;;;3.60;99.90;;;;;;5054168;28;20056;-72
2023/01/23 10:41:13;;;;;;;48.08;13.75;;;3.70;99.90;;;;;;5053438;28;20041;-72
2023/01/23 10:43:41;;;;;;;48.30;13.27;;;3.80;99.90;;;;;;5053829;28;20057;-72
2023/01/23 10:46:14;;;;;;;45.67;14.23;;;3.80;99.90;;;;;;5036132;28;20091;-72
2023/01/23 10:48:43;;;;;;;43.33;13.35;;;3.80;99.90;;;;;;5052977;28;20507;-73
2023/01/23 10:51:42;;;;;;;45.15;12.27;;;3.80;99.90;;;;;;5053868;28;20514;-72
2023/01/23 10:54:19;;;;;;;43.28;12.30;;;3.90;99.90;;;;;;5053420;28;20084;-72
2023/01/23 10:56:57;;;;;;;45.78;12.75;;;3.90;99.90;;;;;;5052611;28;20052;-72
2023/01/23 10:59:35;;;;;;;44.05;13.10;;;3.80;99.90;;;;;;5053774;28;20116;-72
2023/01/23 11:02:14;;;;;;;41.35;13.05;;;3.90;99.90;;;;;;5053872;28;20060;-73
2023/01/23 11:04:46;;;;;;;44.15;13.23;;;4.00;99.90;;;;;;5052424;28;20048;-72
2023/01/23 11:07:19;;;;;;;45.30;11.95;;;4.10;99.90;;;;;;5052933;28;20056;-72
2023/01/23 11:09:53;;;;;;;43.70;12.10;;;4.00;99.90;;;;;;5053543;28;20052;-73
2023/01/23 11:12:29;;;;;;;44.20;13.25;;;3.90;99.90;;;;;;5053732;28;20053;-73
2023/01/23 11:15:12;;;;;;;37.80;11.50;;;3.80;99.90;;;;;;5054130;28;20041;-72
2023/01/23 11:17:40;;;;;;;38.40;12.52;;;4.00;99.90;;;;;;5052236;28;20302;-73
2023/01/23 11:20:20;;;;;;;38.90;11.00;;;4.10;99.90;;;;;;5053533;28;20049;-72
2023/01/23 11:22:57;;;;;;;42.30;13.48;;;4.20;99.90;;;;;;5054537;28;20049;-72
2023/01/23 11:25:28;;;;;;;43.22;13.50;;;4.00;99.90;;;;;;5055178;28;20047;-72
2023/01/23 11:28:03;;;;;;;39.03;11.40;;;4.20;99.90;;;;;;5052551;28;20124;-72
2023/01/23 11:30:43;;;;;;;38.35;11.95;;;4.10;99.90;;;;;;5054153;28;20424;-72
2023/01/23 11:33:46;;;;;;;36.08;12.05;;;4.10;99.90;;;;;;5054326;28;20053;-71
2023/01/23 11:36:18;;;;;;;39.00;10.23;;;4.10;99.90;;;;;;5053339;28;20401;-72
2023/01/23 11:38:53;;;;;;;43.72;12.98;;;4.20;99.90;;;;;;5054464;28;20087;-72
2023/01/23 11:41:21;;;;;;;41.70;12.35;;;4.30;99.90;;;;;;5055747;28;20393;-72
2023/01/23 11:43:47;;;;;;;43.55;12.10;;;4.40;99.90;;;;;;5053411;28;20385;-72
2023/01/23 11:46:39;;;;;;;36.40;11.75;;;4.40;99.90;;;;;;5054769;28;20048;-72
2023/01/23 11:49:26;;;;;;;39.63;11.68;;;4.50;99.90;;;;;;5055356;28;20421;-72
2023/01/23 11:52:18;;;;;;;45.20;12.98;;;4.40;99.90;;;;;;5037469;28;20041;-72
2023/01/23 11:55:13;;;;;;;47.22;12.13;;;4.50;99.90;;;;;;5057131;28;20515;-73
2023/01/23 11:57:56;;;;;;;36.75;11.13;;;4.60;99.90;;;;;;5057680;28;20052;-72
2023/01/23 12:00:58;;;;;;;44.42;12.43;;;4.60;99.90;;;;;;5056847;28;20473;-72
2023/01/23 12:03:55;;;;;;;39.60;11.07;;;4.50;99.90;;;;;;5057453;28;20178;-71
2023/01/23 12:06:24;;;;;;;35.55;12.93;;;4.40;99.90;;;;;;5039874;28;20048;-71
2023/01/23 12:09:13;;;;;;;40.70;14.18;;;4.50;99.90;;;;;;5057245;28;20099;-71
2023/01/23 12:12:04;;;;;;;35.13;11.85;;;4.30;99.90;;;;;;5057476;28;20037;-72
2023/01/23 12:14:41;;;;;;;34.45;9.98;;;4.50;99.90;;;;;;5056700;28;20045;-72
2023/01/23 12:17:29;;;;;;;38.28;11.02;;;4.30;99.90;;;;;;5090771;28;20045;-72
2023/01/23 12:20:16;;;;;;;48.00;12.50;;;4.40;99.90;;;;;;5039529;28;20053;-72
2023/01/23 12:22:54;;;;;;;36.13;11.27;;;4.50;99.90;;;;;;5057408;28;20084;-72
2023/01/23 12:25:34;;;;;;;40.42;12.30;;;4.60;99.90;;;;;;5056760;28;20086;-72
2023/01/23 12:28:30;;;;;;;39.45;11.25;;;4.50;99.90;;;;;;5056353;28;20094;-73
2023/01/23 12:31:21;;;;;;;39.60;10.87;;;4.60;99.90;;;;;;5056011;28;20177;-72
2023/01/23 12:34:25;;;;;;;34.33;10.90;;;4.60;99.90;;;;;;5056571;28;20057;-74
2023/01/23 12:37:05;;;;;;;40.88;11.18;;;4.60;99.90;;;;;;4994967;28;20043;-72
2023/01/23 12:40:00;;;;;;;40.20;11.95;;;4.70;99.90;;;;;;5049687;28;20061;-72
2023/01/23 12:42:46;;;;;;;35.63;10.98;;;4.70;99.90;;;;;;5055218;28;20048;-72
2023/01/23 12:45:21;;;;;;;43.03;12.27;;;4.70;99.90;;;;;;5055029;28;20048;-72
2023/01/23 12:48:08;;;;;;;36.95;12.15;;;4.90;99.90;;;;;;5055204;28;20048;-72
2023/01/23 12:50:58;;;;;;;40.13;13.02;;;4.90;99.90;;;;;;5056956;28;20057;-72
2023/01/23 12:53:25;;;;;;;41.20;11.57;;;5.00;99.90;;;;;;5089679;28;20041;-71
2023/01/23 12:56:09;;;;;;;43.17;12.93;;;5.00;99.90;;;;;;5056852;28;20045;-74
2023/01/23 12:58:40;;;;;;;41.05;12.38;;;5.00;99.90;;;;;;5056969;28;20049;-72
2023/01/23 13:01:11;;;;;;;37.50;11.38;;;5.00;99.90;;;;;;5089915;28;20374;-73